Time;durP1;ratioP1;P1;durP2;ratioP2;P2;SDS_P1;SDS_P2;PMS_P1;PMS_P2;Temp;Humidity;BMP_temperature;BMP_pressure;BME280_temperature;BME280_humidity;BME280_pressure;Samples;Min_cycle;Max_cycle;Signal;HPM_P1;HPM_P2
2021/01/07 00:00:44;;;;;;;15.00;8.00;;;;;;;;;;5094831;28;20786;-77
2021/01/07 00:03:10;;;;;;;12.00;7.57;;;;;;;;;;5094275;28;20429;-76
2021/01/07 00:05:37;;;;;;;17.73;8.63;;;;;;;;;;5094922;28;20492;-77
2021/01/07 00:08:04;;;;;;;13.67;6.97;;;;;;;;;;5101502;28;20932;-77
2021/01/07 00:10:30;;;;;;;13.37;8.03;;;;;;;;;;5095829;28;20868;-76
2021/01/07 00:12:56;;;;;;;13.60;8.30;;;;;;;;;;5103255;28;20456;-76
2021/01/07 00:15:22;;;;;;;14.00;8.63;;;;;;;;;;5116124;28;20449;-76
2021/01/07 00:17:48;;;;;;;13.37;7.93;;;;;;;;;;5105737;28;21010;-76
2021/01/07 00:20:14;;;;;;;15.07;8.50;;;;;;;;;;5095657;28;20436;-76
2021/01/07 00:22:41;;;;;;;14.13;8.30;;;;;;;;;;5094667;28;20432;-76
2021/01/07 00:25:08;;;;;;;12.87;8.50;;;;;;;;;;5095317;28;20530;-76
2021/01/07 00:27:34;;;;;;;16.27;9.50;;;;;;;;;;5098967;28;20466;-76
2021/01/07 00:30:01;;;;;;;13.83;8.10;;;;;;;;;;5115605;28;20404;-76
2021/01/07 00:32:27;;;;;;;10.83;6.73;;;;;;;;;;5113497;28;20423;-77
2021/01/07 00:34:53;;;;;;;17.40;7.90;;;;;;;;;;5115738;28;20433;-76
2021/01/07 00:37:19;;;;;;;12.70;7.57;;;;;;;;;;5110268;28;20510;-75
2021/01/07 00:39:45;;;;;;;19.00;8.60;;;;;;;;;;5095065;28;20557;-76
2021/01/07 00:42:11;;;;;;;15.20;8.20;;;;;;;;;;5094751;28;20400;-75
2021/01/07 00:44:37;;;;;;;13.73;7.33;;;;;;;;;;5115633;28;20406;-76
2021/01/07 00:47:03;;;;;;;17.03;9.37;;;;;;;;;;5114120;28;20424;-76
2021/01/07 00:49:29;;;;;;;14.37;8.67;;;;;;;;;;5094506;28;20420;-76
2021/01/07 00:51:55;;;;;;;16.63;10.63;;;;;;;;;;5095258;28;20454;-76
2021/01/07 00:54:24;;;;;;;16.47;7.93;;;;;;;;;;5093140;28;20843;-75
2021/01/07 00:56:50;;;;;;;13.13;8.50;;;;;;;;;;5094724;28;20503;-76
2021/01/07 00:59:16;;;;;;;18.33;9.73;;;;;;;;;;5106803;28;20457;-74
2021/01/07 01:01:43;;;;;;;16.67;9.20;;;;;;;;;;5113821;28;20435;-74
2021/01/07 01:04:09;;;;;;;17.37;10.70;;;;;;;;;;5111912;28;20454;-74
2021/01/07 01:06:35;;;;;;;25.60;8.40;;;;;;;;;;5116848;28;20792;-74
2021/01/07 01:09:01;;;;;;;14.00;7.47;;;;;;;;;;5103918;28;20451;-74
2021/01/07 01:11:27;;;;;;;17.00;8.20;;;;;;;;;;5095857;28;20476;-74
2021/01/07 01:13:53;;;;;;;16.57;9.03;;;;;;;;;;5093361;28;20420;-75
2021/01/07 01:16:19;;;;;;;15.60;9.10;;;;;;;;;;5094145;28;20955;-75
2021/01/07 01:18:45;;;;;;;15.83;7.97;;;;;;;;;;5099548;28;20434;-75
2021/01/07 01:21:15;;;;;;;14.77;8.50;;;;;;;;;;5112515;28;20428;-75
2021/01/07 01:23:41;;;;;;;13.50;7.40;;;;;;;;;;5112610;28;20423;-75
2021/01/07 01:26:07;;;;;;;16.30;9.20;;;;;;;;;;5114624;28;20414;-75
2021/01/07 01:28:33;;;;;;;17.63;8.70;;;;;;;;;;5112451;28;20458;-76
2021/01/07 01:30:59;;;;;;;19.20;8.20;;;;;;;;;;5114371;28;20400;-75
2021/01/07 01:33:25;;;;;;;17.37;8.83;;;;;;;;;;5112367;28;20435;-76
2021/01/07 01:35:51;;;;;;;14.23;7.77;;;;;;;;;;5112160;28;20427;-75
2021/01/07 01:38:17;;;;;;;13.07;7.63;;;;;;;;;;5112250;28;20456;-76
2021/01/07 01:40:43;;;;;;;14.57;7.90;;;;;;;;;;5114272;28;20399;-75
2021/01/07 01:43:09;;;;;;;19.83;9.27;;;;;;;;;;5112543;28;20407;-75
2021/01/07 01:45:35;;;;;;;14.37;7.53;;;;;;;;;;5114132;28;20817;-75
2021/01/07 01:48:02;;;;;;;13.70;8.00;;;;;;;;;;5100241;28;20498;-76
2021/01/07 01:50:28;;;;;;;14.37;7.60;;;;;;;;;;5073556;28;20949;-75
2021/01/07 01:52:54;;;;;;;17.53;10.07;;;;;;;;;;5073517;28;20504;-75
2021/01/07 01:55:20;;;;;;;14.90;8.60;;;;;;;;;;5091724;28;20459;-74
2021/01/07 01:57:46;;;;;;;17.63;9.00;;;;;;;;;;5093661;28;20452;-75
2021/01/07 02:00:12;;;;;;;16.73;8.97;;;;;;;;;;5110265;28;20502;-74
2021/01/07 02:02:38;;;;;;;13.60;8.37;;;;;;;;;;5114104;28;20494;-75
2021/01/07 02:05:05;;;;;;;17.73;9.50;;;;;;;;;;5097729;28;21007;-74
2021/01/07 02:07:31;;;;;;;14.63;8.97;;;;;;;;;;5093397;28;20510;-74
2021/01/07 02:09:57;;;;;;;19.00;9.97;;;;;;;;;;5089590;28;20436;-74
2021/01/07 02:12:23;;;;;;;17.03;10.63;;;;;;;;;;5093376;28;20409;-74
2021/01/07 02:14:49;;;;;;;14.20;7.90;;;;;;;;;;5101708;28;20903;-74
2021/01/07 02:17:15;;;;;;;14.73;8.33;;;;;;;;;;5113926;28;20423;-74
2021/01/07 02:19:42;;;;;;;18.83;10.40;;;;;;;;;;5106349;28;20791;-74
2021/01/07 02:22:08;;;;;;;14.90;7.40;;;;;;;;;;5114390;28;20411;-74
2021/01/07 02:24:34;;;;;;;14.90;8.60;;;;;;;;;;5112096;28;20423;-74
2021/01/07 02:27:07;;;;;;;19.07;10.20;;;;;;;;;;5113636;28;20427;-74
2021/01/07 02:29:33;;;;;;;13.50;7.30;;;;;;;;;;5105821;28;20424;-74
2021/01/07 02:31:59;;;;;;;17.73;9.17;;;;;;;;;;5097765;28;20404;-75
2021/01/07 02:34:25;;;;;;;17.33;9.33;;;;;;;;;;5096628;28;20787;-74
2021/01/07 02:36:51;;;;;;;16.40;9.10;;;;;;;;;;5097525;28;20443;-74
2021/01/07 02:39:17;;;;;;;17.87;8.80;;;;;;;;;;5096422;28;20473;-74
2021/01/07 02:41:53;;;;;;;13.97;8.50;;;;;;;;;;5097255;28;20900;-75
2021/01/07 02:44:20;;;;;;;15.37;8.27;;;;;;;;;;5096744;28;20429;-74
2021/01/07 02:46:47;;;;;;;16.97;8.70;;;;;;;;;;5096284;28;20432;-74
2021/01/07 02:49:13;;;;;;;16.13;8.70;;;;;;;;;;5097191;28;21093;-75
2021/01/07 02:51:39;;;;;;;16.50;8.97;;;;;;;;;;5114311;28;20454;-74
2021/01/07 02:54:05;;;;;;;13.20;8.17;;;;;;;;;;5117617;28;20491;-75
2021/01/07 02:56:32;;;;;;;19.80;10.33;;;;;;;;;;5115407;28;20439;-75
2021/01/07 02:58:58;;;;;;;22.00;8.80;;;;;;;;;;5117665;28;20756;-75
2021/01/07 03:01:24;;;;;;;16.70;9.13;;;;;;;;;;5100544;28;20435;-75
2021/01/07 03:03:50;;;;;;;14.53;7.90;;;;;;;;;;5095960;28;20424;-74
2021/01/07 03:06:16;;;;;;;13.77;7.80;;;;;;;;;;5095794;28;20443;-74
2021/01/07 03:08:42;;;;;;;13.00;7.97;;;;;;;;;;5096773;28;21055;-75
2021/01/07 03:11:08;;;;;;;13.33;8.17;;;;;;;;;;5107953;28;20431;-74
2021/01/07 03:13:34;;;;;;;15.80;8.27;;;;;;;;;;5095538;28;20428;-74
2021/01/07 03:16:00;;;;;;;15.20;8.10;;;;;;;;;;5110755;28;20434;-74
2021/01/07 03:18:26;;;;;;;14.03;7.57;;;;;;;;;;5117312;28;20473;-75
2021/01/07 03:20:52;;;;;;;11.70;7.67;;;;;;;;;;5115007;28;20514;-74
2021/01/07 03:23:18;;;;;;;14.77;8.10;;;;;;;;;;5116926;28;20479;-75
2021/01/07 03:25:44;;;;;;;14.07;8.87;;;;;;;;;;5105884;28;20419;-75
2021/01/07 03:28:10;;;;;;;13.00;8.43;;;;;;;;;;5096321;28;21023;-74
2021/01/07 03:30:36;;;;;;;13.57;6.67;;;;;;;;;;5103189;28;20424;-74
2021/01/07 03:33:02;;;;;;;15.97;7.53;;;;;;;;;;5114771;28;20775;-73
2021/01/07 03:35:29;;;;;;;12.20;7.90;;;;;;;;;;5113980;28;20427;-74
2021/01/07 03:37:55;;;;;;;12.20;7.17;;;;;;;;;;5116905;28;20608;-74
2021/01/07 03:40:21;;;;;;;15.50;8.03;;;;;;;;;;5096332;28;20424;-74
2021/01/07 03:42:47;;;;;;;10.93;7.40;;;;;;;;;;5096178;28;20811;-74
2021/01/07 03:45:13;;;;;;;12.70;7.53;;;;;;;;;;5098894;28;20510;-74
2021/01/07 03:47:39;;;;;;;14.40;7.33;;;;;;;;;;5114297;28;20462;-74
2021/01/07 03:50:05;;;;;;;10.73;6.43;;;;;;;;;;5114447;28;20483;-74
2021/01/07 03:52:31;;;;;;;11.33;6.90;;;;;;;;;;5116447;28;20403;-74
2021/01/07 03:54:57;;;;;;;12.63;7.10;;;;;;;;;;5116600;28;20403;-74
2021/01/07 03:57:24;;;;;;;14.10;6.97;;;;;;;;;;5094518;28;20811;-74
2021/01/07 03:59:50;;;;;;;11.50;6.93;;;;;;;;;;5096103;28;20800;-74
2021/01/07 04:02:16;;;;;;;13.07;7.47;;;;;;;;;;5110207;28;20463;-74
2021/01/07 04:04:42;;;;;;;14.30;7.53;;;;;;;;;;5116403;28;20391;-74
2021/01/07 04:07:08;;;;;;;11.47;6.80;;;;;;;;;;5100048;28;20528;-74
2021/01/07 04:09:34;;;;;;;14.47;7.40;;;;;;;;;;5095557;28;21070;-74
2021/01/07 04:11:59;;;;;;;13.50;8.00;;;;;;;;;;5107444;28;20435;-74
2021/01/07 04:14:26;;;;;;;17.43;9.27;;;;;;;;;;5094788;28;20432;-74
2021/01/07 04:16:51;;;;;;;16.30;8.13;;;;;;;;;;5105639;28;20451;-74
2021/01/07 04:19:17;;;;;;;13.73;7.30;;;;;;;;;;5114628;28;20452;-74
2021/01/07 04:21:47;;;;;;;14.80;7.83;;;;;;;;;;5113787;28;20913;-75
2021/01/07 04:24:16;;;;;;;13.37;6.97;;;;;;;;;;5116006;28;20431;-75
2021/01/07 04:26:42;;;;;;;9.07;7.37;;;;;;;;;;5114051;28;20810;-75
2021/01/07 04:29:09;;;;;;;14.13;6.63;;;;;;;;;;5113508;28;20463;-75
2021/01/07 04:31:35;;;;;;;14.00;6.93;;;;;;;;;;5105463;28;20453;-75
2021/01/07 04:34:01;;;;;;;13.60;8.20;;;;;;;;;;5095220;28;20401;-75
2021/01/07 04:36:27;;;;;;;15.07;7.50;;;;;;;;;;5101046;28;20979;-75
2021/01/07 04:38:53;;;;;;;11.97;8.30;;;;;;;;;;5115634;28;20431;-75
2021/01/07 04:41:20;;;;;;;14.83;8.53;;;;;;;;;;5113402;28;20985;-75
2021/01/07 04:43:46;;;;;;;18.50;8.80;;;;;;;;;;5114031;28;20956;-75
2021/01/07 04:46:12;;;;;;;11.83;7.43;;;;;;;;;;5112327;28;20449;-75
2021/01/07 04:48:39;;;;;;;14.47;7.70;;;;;;;;;;5115857;28;20982;-75
2021/01/07 04:51:05;;;;;;;16.87;9.57;;;;;;;;;;5113477;28;20472;-75
2021/01/07 04:53:32;;;;;;;12.83;7.53;;;;;;;;;;5114675;28;20399;-75
2021/01/07 04:55:58;;;;;;;12.60;8.30;;;;;;;;;;5111025;28;20428;-75
2021/01/07 04:58:24;;;;;;;18.50;8.67;;;;;;;;;;5093320;28;20406;-76
2021/01/07 05:00:50;;;;;;;13.10;6.43;;;;;;;;;;5093277;28;20428;-75
2021/01/07 05:03:19;;;;;;;14.07;8.20;;;;;;;;;;5094867;28;20889;-76
2021/01/07 05:05:48;;;;;;;11.80;6.50;;;;;;;;;;5113315;28;20423;-77
2021/01/07 05:08:17;;;;;;;11.90;7.50;;;;;;;;;;5115021;28;20456;-77
2021/01/07 05:10:50;;;;;;;21.80;9.40;;;;;;;;;;5113391;28;20983;-77
2021/01/07 05:13:17;;;;;;;15.87;8.43;;;;;;;;;;5114758;28;20832;-75
2021/01/07 05:15:43;;;;;;;12.83;7.97;;;;;;;;;;5097960;28;20974;-75
2021/01/07 05:18:09;;;;;;;16.97;8.27;;;;;;;;;;5094561;28;20473;-74
2021/01/07 05:20:35;;;;;;;15.23;8.67;;;;;;;;;;5110420;28;20427;-74
2021/01/07 05:23:02;;;;;;;13.70;7.83;;;;;;;;;;5114593;28;20498;-75
2021/01/07 05:25:32;;;;;;;13.67;7.80;;;;;;;;;;5112861;28;20505;-74
2021/01/07 05:28:07;;;;;;;14.60;8.57;;;;;;;;;;5114293;28;21006;-74
2021/01/07 05:30:33;;;;;;;19.40;7.47;;;;;;;;;;5112479;28;20427;-74
2021/01/07 05:33:02;;;;;;;15.23;8.37;;;;;;;;;;5112536;28;20423;-74
2021/01/07 05:35:28;;;;;;;24.80;10.03;;;;;;;;;;5108153;28;20800;-74
2021/01/07 05:37:54;;;;;;;15.40;7.13;;;;;;;;;;5114209;28;20500;-74
2021/01/07 05:40:23;;;;;;;17.80;8.20;;;;;;;;;;5112349;28;20463;-74
2021/01/07 05:42:49;;;;;;;13.90;8.33;;;;;;;;;;5114279;28;20922;-74
2021/01/07 05:45:16;;;;;;;15.07;8.00;;;;;;;;;;5112268;28;20427;-74
2021/01/07 05:47:48;;;;;;;16.70;8.10;;;;;;;;;;5107433;28;20455;-75
2021/01/07 05:50:14;;;;;;;17.60;7.60;;;;;;;;;;5106049;28;20774;-74
2021/01/07 05:52:47;;;;;;;19.57;10.50;;;;;;;;;;5114219;28;20400;-74
2021/01/07 05:55:14;;;;;;;14.83;7.27;;;;;;;;;;5099384;28;20431;-74
2021/01/07 05:57:40;;;;;;;17.27;9.13;;;;;;;;;;5093873;28;20424;-74
2021/01/07 06:00:08;;;;;;;21.13;10.20;;;;;;;;;;5103992;28;20484;-74
2021/01/07 06:02:36;;;;;;;18.50;8.53;;;;;;;;;;5113933;28;20448;-74
2021/01/07 06:05:03;;;;;;;10.43;7.43;;;;;;;;;;5112150;28;21033;-74
2021/01/07 06:07:31;;;;;;;17.60;9.23;;;;;;;;;;5101637;28;20482;-74
2021/01/07 06:09:57;;;;;;;16.67;8.50;;;;;;;;;;5092540;28;20428;-74
2021/01/07 06:12:23;;;;;;;14.43;8.37;;;;;;;;;;5093537;28;20927;-74
2021/01/07 06:14:49;;;;;;;18.90;9.77;;;;;;;;;;5100744;28;20423;-75
2021/01/07 06:17:15;;;;;;;23.67;8.73;;;;;;;;;;5095891;28;20519;-75
2021/01/07 06:19:43;;;;;;;17.17;9.77;;;;;;;;;;5099743;28;20435;-75
2021/01/07 06:22:16;;;;;;;18.93;9.10;;;;;;;;;;5113969;28;20418;-75
2021/01/07 06:24:42;;;;;;;23.60;9.70;;;;;;;;;;5106347;28;20510;-75
2021/01/07 06:27:22;;;;;;;15.23;8.70;;;;;;;;;;5093846;28;20424;-74
2021/01/07 06:29:49;;;;;;;17.23;8.27;;;;;;;;;;5100734;28;20423;-74
2021/01/07 06:32:18;;;;;;;14.90;8.63;;;;;;;;;;5114417;28;20395;-75
2021/01/07 06:34:45;;;;;;;14.70;9.27;;;;;;;;;;5112050;28;20514;-74
2021/01/07 06:37:11;;;;;;;13.97;7.90;;;;;;;;;;5114266;28;20447;-74
2021/01/07 06:39:46;;;;;;;16.37;9.03;;;;;;;;;;5111640;28;20522;-75
2021/01/07 06:42:21;;;;;;;12.13;7.53;;;;;;;;;;5113819;28;20480;-74
2021/01/07 06:44:48;;;;;;;15.57;9.13;;;;;;;;;;5112105;28;20430;-74
2021/01/07 06:47:17;;;;;;;18.10;8.00;;;;;;;;;;5113595;28;20423;-74
2021/01/07 06:49:44;;;;;;;15.93;7.73;;;;;;;;;;5111520;28;20479;-74
2021/01/07 06:52:10;;;;;;;23.00;9.87;;;;;;;;;;5113563;28;20477;-75
2021/01/07 06:54:37;;;;;;;16.50;10.10;;;;;;;;;;5106320;28;20416;-74
2021/01/07 06:57:04;;;;;;;19.23;9.47;;;;;;;;;;5093200;28;20493;-74
2021/01/07 06:59:30;;;;;;;20.10;9.00;;;;;;;;;;5096081;28;20472;-74
2021/01/07 07:01:57;;;;;;;19.13;9.70;;;;;;;;;;5113609;28;20487;-75
2021/01/07 07:04:27;;;;;;;16.27;8.57;;;;;;;;;;5105319;28;20424;-74
2021/01/07 07:07:00;;;;;;;13.97;7.70;;;;;;;;;;5113170;28;20415;-74
2021/01/07 07:09:27;;;;;;;14.80;7.67;;;;;;;;;;5108542;28;20865;-74
2021/01/07 07:11:54;;;;;;;14.87;7.87;;;;;;;;;;5093099;28;20388;-75
2021/01/07 07:14:20;;;;;;;14.23;6.57;;;;;;;;;;5093474;28;20420;-75
2021/01/07 07:16:48;;;;;;;18.50;8.93;;;;;;;;;;5094319;28;20412;-76
2021/01/07 07:19:24;;;;;;;17.70;7.13;;;;;;;;;;5095404;28;20538;-76
2021/01/07 07:22:16;;;;;;;23.70;8.50;;;;;;;;;;5117217;28;20467;-76
2021/01/07 07:24:48;;;;;;;18.70;9.57;;;;;;;;;;5084881;28;20889;-77
2021/01/07 07:27:14;;;;;;;17.17;8.20;;;;;;;;;;5092586;28;20635;-76
2021/01/07 07:29:45;;;;;;;15.70;7.40;;;;;;;;;;5097891;28;20962;-76
2021/01/07 07:32:24;;;;;;;18.47;9.03;;;;;;;;;;5116487;28;20882;-75
2021/01/07 07:34:50;;;;;;;19.60;10.20;;;;;;;;;;5114665;28;20423;-75
2021/01/07 07:37:20;;;;;;;18.40;10.00;;;;;;;;;;5116258;28;20811;-75
2021/01/07 07:39:48;;;;;;;16.83;7.87;;;;;;;;;;5110179;28;20880;-75
2021/01/07 07:42:14;;;;;;;24.90;9.90;;;;;;;;;;5095070;28;20415;-75
2021/01/07 07:44:41;;;;;;;24.33;10.77;;;;;;;;;;5095067;28;20424;-75
2021/01/07 07:47:07;;;;;;;19.97;8.67;;;;;;;;;;5095636;28;20447;-75
2021/01/07 07:49:33;;;;;;;19.37;9.67;;;;;;;;;;5112271;28;20546;-75
2021/01/07 07:51:59;;;;;;;14.10;9.30;;;;;;;;;;5097788;28;20406;-75
2021/01/07 07:54:25;;;;;;;17.67;8.40;;;;;;;;;;5094687;28;20467;-75
2021/01/07 07:57:00;;;;;;;21.90;10.60;;;;;;;;;;5115877;28;20438;-75
2021/01/07 07:59:26;;;;;;;18.47;9.20;;;;;;;;;;5113988;28;20399;-76
2021/01/07 08:01:54;;;;;;;18.97;8.93;;;;;;;;;;5094890;28;21107;-75
2021/01/07 08:04:21;;;;;;;20.37;9.00;;;;;;;;;;5094268;28;20404;-75
2021/01/07 08:06:47;;;;;;;19.70;9.47;;;;;;;;;;5113051;28;20450;-75
2021/01/07 08:09:15;;;;;;;23.73;8.30;;;;;;;;;;5116082;28;20450;-75
2021/01/07 08:12:01;;;;;;;20.53;11.20;;;;;;;;;;5113375;28;20427;-76
2021/01/07 08:14:30;;;;;;;19.50;9.53;;;;;;;;;;5090652;28;20810;-75
2021/01/07 08:16:57;;;;;;;19.53;10.43;;;;;;;;;;5074895;28;20828;-75
2021/01/07 08:19:25;;;;;;;17.27;9.53;;;;;;;;;;5093005;28;20978;-75
2021/01/07 08:21:53;;;;;;;19.33;10.20;;;;;;;;;;5095457;28;20416;-75
2021/01/07 08:24:20;;;;;;;20.30;10.50;;;;;;;;;;5094526;28;20405;-75
2021/01/07 08:26:54;;;;;;;16.93;8.90;;;;;;;;;;5092307;28;20448;-75
2021/01/07 08:29:21;;;;;;;17.63;10.37;;;;;;;;;;5094597;28;20458;-75
2021/01/07 08:31:48;;;;;;;21.03;10.50;;;;;;;;;;5095572;28;20499;-75
2021/01/07 08:34:17;;;;;;;18.03;9.83;;;;;;;;;;5093989;28;20462;-75
2021/01/07 08:36:44;;;;;;;18.23;10.27;;;;;;;;;;5092039;28;20511;-75
2021/01/07 08:39:13;;;;;;;18.20;9.87;;;;;;;;;;5094332;28;20796;-75
2021/01/07 08:41:41;;;;;;;16.57;9.23;;;;;;;;;;5096877;28;20498;-75
2021/01/07 08:44:08;;;;;;;13.97;9.80;;;;;;;;;;5093688;28;20415;-75
2021/01/07 08:46:42;;;;;;;18.17;9.80;;;;;;;;;;5093569;28;20535;-75
2021/01/07 08:49:16;;;;;;;15.43;9.80;;;;;;;;;;5093661;28;20794;-76
2021/01/07 08:51:43;;;;;;;18.27;9.07;;;;;;;;;;5093550;28;20456;-75
2021/01/07 08:54:14;;;;;;;19.30;10.90;;;;;;;;;;5091832;28;20490;-75
2021/01/07 08:56:41;;;;;;;16.83;9.03;;;;;;;;;;5090112;28;20944;-75
2021/01/07 08:59:19;;;;;;;18.17;10.20;;;;;;;;;;5084049;28;20493;-75
2021/01/07 09:01:46;;;;;;;17.20;9.13;;;;;;;;;;5091311;28;20420;-75
2021/01/07 09:04:35;;;;;;;15.83;10.10;;;;;;;;;;5090783;28;20486;-75
2021/01/07 09:07:01;;;;;;;15.17;9.07;;;;;;;;;;5088137;28;20538;-75
2021/01/07 09:09:28;;;;;;;17.03;7.90;;;;;;;;;;5094126;28;20550;-75
2021/01/07 09:12:09;;;;;;;15.80;10.27;;;;;;;;;;5106230;28;20443;-75
2021/01/07 09:14:53;;;;;;;19.50;8.80;;;;;;;;;;5094006;28;20400;-75
2021/01/07 09:17:21;;;;;;;15.10;10.30;;;;;;;;;;5090008;28;20439;-75
2021/01/07 09:19:47;;;;;;;23.07;11.27;;;;;;;;;;5091688;28;20403;-78
2021/01/07 09:22:17;;;;;;;18.10;8.90;;;;;;;;;;5095120;28;20424;-75
2021/01/07 09:24:43;;;;;;;18.40;9.33;;;;;;;;;;5094110;28;20759;-76
2021/01/07 09:27:10;;;;;;;12.77;8.77;;;;;;;;;;5106167;28;20463;-75
2021/01/07 09:29:37;;;;;;;18.10;10.07;;;;;;;;;;5097177;28;20530;-75
2021/01/07 09:32:03;;;;;;;18.53;10.40;;;;;;;;;;5092126;28;20787;-75
2021/01/07 09:34:29;;;;;;;14.23;8.27;;;;;;;;;;5090995;28;20463;-75
2021/01/07 09:37:00;;;;;;;17.57;9.63;;;;;;;;;;5083381;28;20467;-75
2021/01/07 09:39:26;;;;;;;16.97;9.93;;;;;;;;;;5093489;28;20401;-76
2021/01/07 09:41:52;;;;;;;22.47;10.60;;;;;;;;;;5111372;28;20963;-74
2021/01/07 09:44:18;;;;;;;14.43;8.60;;;;;;;;;;5114100;28;20403;-75
2021/01/07 09:46:44;;;;;;;26.33;10.80;;;;;;;;;;5091363;28;20514;-75
2021/01/07 09:49:10;;;;;;;13.30;8.40;;;;;;;;;;5082418;28;20445;-77
2021/01/07 09:51:36;;;;;;;17.00;9.60;;;;;;;;;;5100252;28;20908;-75
2021/01/07 09:54:02;;;;;;;18.43;10.97;;;;;;;;;;5078458;28;20505;-74
2021/01/07 09:56:28;;;;;;;18.07;10.23;;;;;;;;;;5098360;28;20526;-75
2021/01/07 09:58:54;;;;;;;17.43;8.83;;;;;;;;;;5096303;28;20519;-74
2021/01/07 10:01:20;;;;;;;13.93;8.47;;;;;;;;;;5089524;28;20511;-75
2021/01/07 10:03:46;;;;;;;16.77;9.70;;;;;;;;;;5085452;28;20440;-75
2021/01/07 10:06:12;;;;;;;19.03;10.50;;;;;;;;;;5088324;28;20428;-75
2021/01/07 10:08:38;;;;;;;16.97;10.10;;;;;;;;;;5092130;28;20955;-75
2021/01/07 10:11:05;;;;;;;20.50;9.77;;;;;;;;;;5088168;28;20502;-75
2021/01/07 10:13:31;;;;;;;15.97;9.00;;;;;;;;;;5088142;28;20432;-76
2021/01/07 10:15:57;;;;;;;18.80;10.87;;;;;;;;;;5091699;28;20424;-76
2021/01/07 10:18:23;;;;;;;14.40;8.33;;;;;;;;;;5078440;28;20917;-75
2021/01/07 10:20:49;;;;;;;17.93;9.43;;;;;;;;;;5083571;28;20434;-75
2021/01/07 10:23:17;;;;;;;14.20;8.20;;;;;;;;;;5097442;28;20432;-75
2021/01/07 10:25:45;;;;;;;13.70;9.23;;;;;;;;;;5091870;28;20776;-75
2021/01/07 10:28:11;;;;;;;16.37;7.70;;;;;;;;;;5092319;28;20455;-75
2021/01/07 10:30:37;;;;;;;15.77;8.80;;;;;;;;;;5095425;28;20426;-76
2021/01/07 10:33:03;;;;;;;18.00;8.70;;;;;;;;;;5113605;28;20407;-75
2021/01/07 10:35:29;;;;;;;25.20;10.43;;;;;;;;;;5109831;28;20433;-75
2021/01/07 10:37:58;;;;;;;15.07;9.03;;;;;;;;;;5112925;28;20475;-76
2021/01/07 10:40:25;;;;;;;16.07;8.60;;;;;;;;;;5112023;28;20754;-75
2021/01/07 10:42:51;;;;;;;10.40;8.13;;;;;;;;;;5114728;28;20396;-75
2021/01/07 10:45:17;;;;;;;14.33;8.10;;;;;;;;;;5112527;28;20399;-76
2021/01/07 10:47:45;;;;;;;16.70;8.77;;;;;;;;;;5113703;28;20455;-75
2021/01/07 10:50:14;;;;;;;16.93;9.37;;;;;;;;;;5112334;28;20433;-75
2021/01/07 10:52:46;;;;;;;12.83;7.07;;;;;;;;;;5115030;28;20739;-75
2021/01/07 10:55:16;;;;;;;17.27;9.93;;;;;;;;;;5116022;28;20762;-74
2021/01/07 10:58:01;;;;;;;15.03;10.70;;;;;;;;;;5114710;28;20947;-74
2021/01/07 11:00:27;;;;;;;15.07;8.30;;;;;;;;;;5111435;28;20415;-74
2021/01/07 11:02:53;;;;;;;18.50;9.90;;;;;;;;;;5091462;28;20486;-76
2021/01/07 11:05:33;;;;;;;16.90;8.97;;;;;;;;;;5094346;28;20877;-76
2021/01/07 11:08:14;;;;;;;13.57;8.70;;;;;;;;;;5091622;28;20826;-76
2021/01/07 11:10:42;;;;;;;12.60;7.97;;;;;;;;;;5095184;28;20410;-75
2021/01/07 11:13:09;;;;;;;16.43;9.13;;;;;;;;;;5094097;28;20420;-75
2021/01/07 11:15:37;;;;;;;18.50;9.33;;;;;;;;;;5095472;28;20782;-75
2021/01/07 11:18:07;;;;;;;15.73;9.00;;;;;;;;;;5110662;28;20457;-76
2021/01/07 11:20:34;;;;;;;12.07;7.70;;;;;;;;;;5115379;28;20392;-75
2021/01/07 11:23:00;;;;;;;15.90;9.30;;;;;;;;;;5109798;28;20423;-75
2021/01/07 11:25:26;;;;;;;17.40;10.23;;;;;;;;;;5094982;28;20424;-75
2021/01/07 11:27:52;;;;;;;15.20;9.13;;;;;;;;;;5091770;28;20460;-75
2021/01/07 11:30:19;;;;;;;11.57;8.07;;;;;;;;;;5095051;28;20442;-75
2021/01/07 11:32:46;;;;;;;18.33;8.50;;;;;;;;;;5107922;28;20426;-75
2021/01/07 11:35:13;;;;;;;15.60;9.33;;;;;;;;;;5115129;28;20392;-75
2021/01/07 11:37:58;;;;;;;19.47;8.33;;;;;;;;;;5080858;28;608606;-75
2021/01/07 11:40:25;;;;;;;11.80;8.57;;;;;;;;;;5095367;28;20265;-75
2021/01/07 11:43:14;;;;;;;17.10;9.10;;;;;;;;;;5094281;28;20776;-75
2021/01/07 11:45:41;;;;;;;19.43;10.00;;;;;;;;;;5071894;28;20452;-75
2021/01/07 11:48:07;;;;;;;16.00;7.37;;;;;;;;;;5094981;28;20456;-75
2021/01/07 11:50:42;;;;;;;14.03;8.20;;;;;;;;;;5093740;28;20436;-75
2021/01/07 11:53:09;;;;;;;14.73;7.73;;;;;;;;;;5111465;28;20423;-75
2021/01/07 11:55:36;;;;;;;13.00;7.70;;;;;;;;;;5116418;28;20471;-74
2021/01/07 11:58:02;;;;;;;12.00;7.50;;;;;;;;;;5113470;28;20951;-75
2021/01/07 12:00:28;;;;;;;11.33;8.40;;;;;;;;;;5094908;28;20493;-75
2021/01/07 12:02:55;;;;;;;10.60;7.17;;;;;;;;;;5108402;28;20884;-75
2021/01/07 12:05:24;;;;;;;14.03;7.73;;;;;;;;;;5116103;28;20407;-75
2021/01/07 12:07:57;;;;;;;15.53;7.97;;;;;;;;;;5113302;28;20550;-75
2021/01/07 12:10:23;;;;;;;11.87;7.40;;;;;;;;;;5115775;28;20384;-75
2021/01/07 12:12:54;;;;;;;15.50;8.47;;;;;;;;;;5114412;28;20949;-75
2021/01/07 12:15:21;;;;;;;13.90;7.97;;;;;;;;;;5111734;28;20389;-75
2021/01/07 12:17:47;;;;;;;14.93;8.47;;;;;;;;;;5093281;28;20460;-75
2021/01/07 12:20:13;;;;;;;12.50;7.60;;;;;;;;;;5094143;28;20484;-76
2021/01/07 12:22:39;;;;;;;15.70;9.27;;;;;;;;;;5094453;28;20458;-75
2021/01/07 12:25:06;;;;;;;12.70;7.77;;;;;;;;;;5092359;28;20400;-76
2021/01/07 12:27:32;;;;;;;16.03;8.17;;;;;;;;;;5092476;28;20797;-75
2021/01/07 12:30:03;;;;;;;22.10;9.10;;;;;;;;;;5093491;28;20531;-75
2021/01/07 12:32:30;;;;;;;14.23;8.37;;;;;;;;;;5098161;28;20858;-75
2021/01/07 12:35:13;;;;;;;13.53;8.50;;;;;;;;;;5105405;28;20416;-75
2021/01/07 12:37:57;;;;;;;11.77;6.83;;;;;;;;;;5099421;28;20932;-73
2021/01/07 12:40:25;;;;;;;13.50;8.90;;;;;;;;;;5115294;28;20462;-73
2021/01/07 12:43:11;;;;;;;12.60;6.83;;;;;;;;;;5102877;28;20447;-74
2021/01/07 12:45:38;;;;;;;12.10;7.17;;;;;;;;;;5098128;28;20421;-73
2021/01/07 12:48:04;;;;;;;15.20;8.07;;;;;;;;;;5111631;28;20490;-73
2021/01/07 12:50:30;;;;;;;11.13;6.67;;;;;;;;;;5114844;28;20403;-73
2021/01/07 12:52:56;;;;;;;12.20;6.23;;;;;;;;;;5113192;28;20424;-73
2021/01/07 12:55:23;;;;;;;12.33;6.50;;;;;;;;;;5113601;28;20477;-73
2021/01/07 12:58:11;;;;;;;11.90;7.73;;;;;;;;;;5112714;28;20446;-73
2021/01/07 13:00:56;;;;;;;12.30;7.33;;;;;;;;;;5092898;28;20519;-73
2021/01/07 13:03:37;;;;;;;8.97;6.27;;;;;;;;;;5093974;28;20949;-73
2021/01/07 13:06:04;;;;;;;15.10;8.10;;;;;;;;;;5093051;28;20771;-73
2021/01/07 13:08:31;;;;;;;17.63;8.40;;;;;;;;;;5093819;28;20537;-73
2021/01/07 13:10:59;;;;;;;13.63;7.13;;;;;;;;;;5093003;28;20932;-73
2021/01/07 13:13:29;;;;;;;21.57;9.50;;;;;;;;;;5090714;28;20475;-74
2021/01/07 13:15:55;;;;;;;13.17;7.33;;;;;;;;;;5093010;28;20491;-73
2021/01/07 13:18:21;;;;;;;13.23;7.80;;;;;;;;;;5093155;28;20512;-73
2021/01/07 13:20:47;;;;;;;14.67;8.53;;;;;;;;;;5090539;28;20530;-74
2021/01/07 13:23:13;;;;;;;13.07;7.80;;;;;;;;;;5092948;28;20507;-73
2021/01/07 13:25:39;;;;;;;14.90;9.20;;;;;;;;;;5093208;28;20525;-73
2021/01/07 13:28:06;;;;;;;16.30;8.80;;;;;;;;;;5089439;28;20503;-73
2021/01/07 13:30:32;;;;;;;17.83;9.03;;;;;;;;;;5092333;28;20423;-73
2021/01/07 13:32:58;;;;;;;17.20;8.77;;;;;;;;;;5092052;28;20520;-73
2021/01/07 13:35:36;;;;;;;15.70;9.07;;;;;;;;;;5092380;28;20408;-74
2021/01/07 13:38:03;;;;;;;21.00;10.03;;;;;;;;;;5092343;28;20454;-74
2021/01/07 13:40:29;;;;;;;22.17;9.90;;;;;;;;;;5090224;28;20425;-74
2021/01/07 13:43:00;;;;;;;16.43;9.00;;;;;;;;;;5093052;28;20464;-74
2021/01/07 13:45:26;;;;;;;23.93;10.47;;;;;;;;;;5097380;28;20526;-74
2021/01/07 13:47:52;;;;;;;17.00;9.53;;;;;;;;;;5088977;28;20526;-75
2021/01/07 13:50:34;;;;;;;23.13;9.87;;;;;;;;;;5091207;28;20422;-74
2021/01/07 13:53:04;;;;;;;17.10;9.03;;;;;;;;;;5090888;28;20417;-73
2021/01/07 13:55:32;;;;;;;22.20;8.80;;;;;;;;;;5092367;28;20972;-74
2021/01/07 13:57:58;;;;;;;15.47;9.40;;;;;;;;;;5091108;28;20928;-74
2021/01/07 14:00:24;;;;;;;18.30;10.30;;;;;;;;;;5092411;28;20433;-74
2021/01/07 14:02:50;;;;;;;18.30;8.40;;;;;;;;;;5092252;28;20401;-74
2021/01/07 14:05:16;;;;;;;14.37;8.87;;;;;;;;;;5093498;28;20477;-74
2021/01/07 14:07:51;;;;;;;19.73;8.80;;;;;;;;;;5091609;28;20426;-73
2021/01/07 14:10:18;;;;;;;17.60;8.97;;;;;;;;;;5092852;28;20910;-74
2021/01/07 14:12:46;;;;;;;18.87;9.33;;;;;;;;;;5091817;28;20456;-74
2021/01/07 14:15:12;;;;;;;17.43;9.53;;;;;;;;;;5092907;28;20450;-74
2021/01/07 14:17:42;;;;;;;13.53;8.73;;;;;;;;;;5091560;28;20417;-74
2021/01/07 14:20:09;;;;;;;15.90;8.60;;;;;;;;;;5090302;28;20475;-74
2021/01/07 14:22:36;;;;;;;15.90;9.87;;;;;;;;;;5091675;28;20410;-74
2021/01/07 14:25:02;;;;;;;29.27;14.07;;;;;;;;;;5089006;28;20429;-74
2021/01/07 14:27:43;;;;;;;13.07;8.03;;;;;;;;;;5093464;28;20534;-74
2021/01/07 14:30:10;;;;;;;13.40;8.73;;;;;;;;;;5087450;28;20987;-74
2021/01/07 14:32:37;;;;;;;17.80;10.03;;;;;;;;;;5091664;28;20410;-74